Terminal Aerodrome Forecast
Issued by NWS

Current Version | Previous Version | Text Only | Print | Product List | Glossary On
Versions: 1 2 3 4 5 6 7 8 9 10 11 12 13 14
000
FTUS45 KTFX 192332
TAFGTF
TAF
KGTF 192332Z 2000/2024 05010KT P6SM SCT200
     FM201200 22008KT 6SM FU FEW200
     FM201900 26009KT P6SM FEW200=

USA.gov is the U.S. government's official web portal to all federal, state and local government web resources and services.